sensor_id;sensor_type;location;lat;lon;timestamp;P1;durP1;ratioP1;P2;durP2;ratioP2
53875;SDS011;39789;53.216;5.624;2023-06-22T00:01:23;31.73;;;23.33;;
53875;SDS011;39789;53.216;5.624;2023-06-22T00:03:48;30.48;;;25.98;;
53875;SDS011;39789;53.216;5.624;2023-06-22T00:06:14;24.85;;;21.35;;
53875;SDS011;39789;53.216;5.624;2023-06-22T00:08:40;23.35;;;20.85;;
53875;SDS011;39789;53.216;5.624;2023-06-22T00:11:05;26.50;;;22.80;;
53875;SDS011;39789;53.216;5.624;2023-06-22T00:13:31;28.83;;;22.40;;
53875;SDS011;39789;53.216;5.624;2023-06-22T00:15:57;27.17;;;22.02;;
53875;SDS011;39789;53.216;5.624;2023-06-22T00:18:22;27.17;;;24.27;;
53875;SDS011;39789;53.216;5.624;2023-06-22T00:20:52;25.73;;;21.63;;
53875;SDS011;39789;53.216;5.624;2023-06-22T00:23:22;20.88;;;18.75;;
53875;SDS011;39789;53.216;5.624;2023-06-22T00:25:48;17.70;;;15.88;;
53875;SDS011;39789;53.216;5.624;2023-06-22T00:28:14;21.10;;;18.17;;
53875;SDS011;39789;53.216;5.624;2023-06-22T00:30:40;194.88;;;26.65;;
53875;SDS011;39789;53.216;5.624;2023-06-22T00:33:06;85.05;;;23.77;;
53875;SDS011;39789;53.216;5.624;2023-06-22T00:35:32;30.35;;;22.20;;
53875;SDS011;39789;53.216;5.624;2023-06-22T00:37:58;27.25;;;24.23;;
53875;SDS011;39789;53.216;5.624;2023-06-22T00:40:30;44.97;;;27.02;;
53875;SDS011;39789;53.216;5.624;2023-06-22T00:42:56;37.38;;;28.25;;
53875;SDS011;39789;53.216;5.624;2023-06-22T00:45:23;37.60;;;28.63;;
53875;SDS011;39789;53.216;5.624;2023-06-22T00:47:53;36.72;;;27.70;;
53875;SDS011;39789;53.216;5.624;2023-06-22T00:50:21;40.88;;;28.88;;
53875;SDS011;39789;53.216;5.624;2023-06-22T00:52:52;44.25;;;33.15;;
53875;SDS011;39789;53.216;5.624;2023-06-22T00:55:19;33.10;;;29.45;;
53875;SDS011;39789;53.216;5.624;2023-06-22T00:57:46;35.60;;;30.13;;
53875;SDS011;39789;53.216;5.624;2023-06-22T01:00:13;35.28;;;30.30;;
53875;SDS011;39789;53.216;5.624;2023-06-22T01:02:41;39.38;;;31.52;;
53875;SDS011;39789;53.216;5.624;2023-06-22T01:05:10;37.40;;;30.45;;
53875;SDS011;39789;53.216;5.624;2023-06-22T01:07:42;36.85;;;29.98;;
53875;SDS011;39789;53.216;5.624;2023-06-22T01:13:24;50.05;;;33.95;;
53875;SDS011;39789;53.216;5.624;2023-06-22T01:18:26;58.35;;;36.55;;
53875;SDS011;39789;53.216;5.624;2023-06-22T01:20:56;62.05;;;37.83;;
53875;SDS011;39789;53.216;5.624;2023-06-22T01:23:31;59.35;;;36.80;;
53875;SDS011;39789;53.216;5.624;2023-06-22T01:29:01;56.80;;;39.20;;
53875;SDS011;39789;53.216;5.624;2023-06-22T01:31:30;52.05;;;34.08;;
53875;SDS011;39789;53.216;5.624;2023-06-22T01:33:58;39.15;;;30.85;;
53875;SDS011;39789;53.216;5.624;2023-06-22T01:36:26;41.72;;;31.33;;
53875;SDS011;39789;53.216;5.624;2023-06-22T01:38:53;42.70;;;30.45;;
53875;SDS011;39789;53.216;5.624;2023-06-22T01:41:20;46.90;;;31.27;;
53875;SDS011;39789;53.216;5.624;2023-06-22T01:43:46;42.17;;;31.00;;
53875;SDS011;39789;53.216;5.624;2023-06-22T01:46:13;59.83;;;33.08;;
53875;SDS011;39789;53.216;5.624;2023-06-22T01:48:39;99.90;;;35.63;;
53875;SDS011;39789;53.216;5.624;2023-06-22T01:51:05;136.25;;;38.88;;
53875;SDS011;39789;53.216;5.624;2023-06-22T01:53:31;188.40;;;41.60;;
53875;SDS011;39789;53.216;5.624;2023-06-22T01:55:57;160.05;;;38.05;;
53875;SDS011;39789;53.216;5.624;2023-06-22T01:58:24;144.02;;;37.35;;
53875;SDS011;39789;53.216;5.624;2023-06-22T02:01:06;191.15;;;37.25;;
53875;SDS011;39789;53.216;5.624;2023-06-22T02:03:36;210.57;;;39.05;;
53875;SDS011;39789;53.216;5.624;2023-06-22T02:06:20;227.15;;;39.30;;
53875;SDS011;39789;53.216;5.624;2023-06-22T02:08:57;160.82;;;35.38;;
53875;SDS011;39789;53.216;5.624;2023-06-22T02:11:26;185.55;;;35.97;;
53875;SDS011;39789;53.216;5.624;2023-06-22T02:13:54;155.77;;;35.33;;
53875;SDS011;39789;53.216;5.624;2023-06-22T02:16:22;176.40;;;33.50;;
53875;SDS011;39789;53.216;5.624;2023-06-22T02:18:49;169.57;;;33.63;;
53875;SDS011;39789;53.216;5.624;2023-06-22T02:21:18;186.63;;;32.65;;
53875;SDS011;39789;53.216;5.624;2023-06-22T02:23:45;175.65;;;33.53;;
53875;SDS011;39789;53.216;5.624;2023-06-22T02:26:11;190.60;;;31.98;;
53875;SDS011;39789;53.216;5.624;2023-06-22T02:28:37;180.93;;;32.05;;
53875;SDS011;39789;53.216;5.624;2023-06-22T02:31:03;228.63;;;35.58;;
53875;SDS011;39789;53.216;5.624;2023-06-22T02:33:28;202.40;;;34.83;;
53875;SDS011;39789;53.216;5.624;2023-06-22T02:35:54;187.52;;;31.33;;
53875;SDS011;39789;53.216;5.624;2023-06-22T02:38:20;110.55;;;24.92;;
53875;SDS011;39789;53.216;5.624;2023-06-22T02:40:46;101.10;;;24.63;;
53875;SDS011;39789;53.216;5.624;2023-06-22T02:43:12;89.05;;;23.90;;
53875;SDS011;39789;53.216;5.624;2023-06-22T02:45:38;56.30;;;23.30;;
53875;SDS011;39789;53.216;5.624;2023-06-22T02:48:04;58.45;;;23.50;;
53875;SDS011;39789;53.216;5.624;2023-06-22T02:50:30;66.18;;;23.60;;
53875;SDS011;39789;53.216;5.624;2023-06-22T02:52:55;99.45;;;25.95;;
53875;SDS011;39789;53.216;5.624;2023-06-22T02:55:21;88.75;;;25.38;;
53875;SDS011;39789;53.216;5.624;2023-06-22T02:57:46;60.00;;;24.92;;
53875;SDS011;39789;53.216;5.624;2023-06-22T03:00:13;62.10;;;27.42;;
53875;SDS011;39789;53.216;5.624;2023-06-22T03:02:43;57.20;;;26.67;;
53875;SDS011;39789;53.216;5.624;2023-06-22T03:05:09;45.38;;;28.13;;
53875;SDS011;39789;53.216;5.624;2023-06-22T03:07:38;47.92;;;27.90;;
53875;SDS011;39789;53.216;5.624;2023-06-22T03:10:11;48.92;;;28.60;;
53875;SDS011;39789;53.216;5.624;2023-06-22T03:12:38;40.38;;;28.75;;
53875;SDS011;39789;53.216;5.624;2023-06-22T03:15:05;45.20;;;30.67;;
53875;SDS011;39789;53.216;5.624;2023-06-22T03:17:31;49.97;;;29.65;;
53875;SDS011;39789;53.216;5.624;2023-06-22T03:19:57;45.90;;;30.10;;
53875;SDS011;39789;53.216;5.624;2023-06-22T03:22:23;51.60;;;31.33;;
53875;SDS011;39789;53.216;5.624;2023-06-22T03:24:49;47.00;;;30.35;;
53875;SDS011;39789;53.216;5.624;2023-06-22T03:27:14;60.35;;;32.63;;
53875;SDS011;39789;53.216;5.624;2023-06-22T03:29:40;48.80;;;32.88;;
53875;SDS011;39789;53.216;5.624;2023-06-22T03:32:06;52.28;;;34.15;;
53875;SDS011;39789;53.216;5.624;2023-06-22T03:34:31;44.45;;;32.08;;
53875;SDS011;39789;53.216;5.624;2023-06-22T03:37:01;43.08;;;31.02;;
53875;SDS011;39789;53.216;5.624;2023-06-22T03:39:26;39.40;;;29.83;;
53875;SDS011;39789;53.216;5.624;2023-06-22T03:41:52;41.80;;;30.23;;
53875;SDS011;39789;53.216;5.624;2023-06-22T03:44:18;38.95;;;30.13;;
53875;SDS011;39789;53.216;5.624;2023-06-22T03:46:44;37.83;;;30.63;;
53875;SDS011;39789;53.216;5.624;2023-06-22T03:49:09;38.03;;;29.38;;
53875;SDS011;39789;53.216;5.624;2023-06-22T03:51:35;41.20;;;31.23;;
53875;SDS011;39789;53.216;5.624;2023-06-22T03:54:01;35.10;;;29.70;;
53875;SDS011;39789;53.216;5.624;2023-06-22T03:56:26;37.97;;;29.63;;
53875;SDS011;39789;53.216;5.624;2023-06-22T03:58:52;39.65;;;29.10;;
53875;SDS011;39789;53.216;5.624;2023-06-22T04:01:18;35.03;;;30.05;;
53875;SDS011;39789;53.216;5.624;2023-06-22T04:03:44;35.65;;;29.77;;
53875;SDS011;39789;53.216;5.624;2023-06-22T04:06:09;35.60;;;28.42;;
53875;SDS011;39789;53.216;5.624;2023-06-22T04:08:35;34.92;;;29.00;;
53875;SDS011;39789;53.216;5.624;2023-06-22T04:11:01;40.15;;;29.58;;
53875;SDS011;39789;53.216;5.624;2023-06-22T04:13:30;39.05;;;29.10;;
53875;SDS011;39789;53.216;5.624;2023-06-22T04:15:55;38.60;;;30.75;;
53875;SDS011;39789;53.216;5.624;2023-06-22T04:18:21;36.35;;;30.90;;
53875;SDS011;39789;53.216;5.624;2023-06-22T04:20:50;38.53;;;30.15;;
53875;SDS011;39789;53.216;5.624;2023-06-22T04:23:18;39.03;;;31.08;;
53875;SDS011;39789;53.216;5.624;2023-06-22T04:25:44;37.15;;;31.40;;
53875;SDS011;39789;53.216;5.624;2023-06-22T04:28:19;41.03;;;31.48;;
53875;SDS011;39789;53.216;5.624;2023-06-22T04:30:44;33.58;;;27.80;;
53875;SDS011;39789;53.216;5.624;2023-06-22T04:33:13;32.65;;;28.15;;
53875;SDS011;39789;53.216;5.624;2023-06-22T04:35:40;56.75;;;29.27;;
53875;SDS011;39789;53.216;5.624;2023-06-22T04:38:08;110.13;;;30.90;;
53875;SDS011;39789;53.216;5.624;2023-06-22T04:40:34;202.23;;;33.28;;
53875;SDS011;39789;53.216;5.624;2023-06-22T04:43:00;233.18;;;31.60;;
53875;SDS011;39789;53.216;5.624;2023-06-22T04:45:30;132.90;;;26.65;;
53875;SDS011;39789;53.216;5.624;2023-06-22T04:47:55;112.75;;;27.65;;
53875;SDS011;39789;53.216;5.624;2023-06-22T04:50:21;82.20;;;28.40;;
53875;SDS011;39789;53.216;5.624;2023-06-22T04:52:48;157.75;;;32.03;;
53875;SDS011;39789;53.216;5.624;2023-06-22T04:55:18;166.38;;;32.92;;
53875;SDS011;39789;53.216;5.624;2023-06-22T04:57:45;113.32;;;32.53;;
53875;SDS011;39789;53.216;5.624;2023-06-22T05:00:25;95.95;;;31.38;;
53875;SDS011;39789;53.216;5.624;2023-06-22T05:02:51;82.68;;;32.28;;
53875;SDS011;39789;53.216;5.624;2023-06-22T05:05:17;81.65;;;31.27;;
53875;SDS011;39789;53.216;5.624;2023-06-22T05:07:46;114.65;;;33.45;;
53875;SDS011;39789;53.216;5.624;2023-06-22T05:10:23;133.20;;;35.22;;
53875;SDS011;39789;53.216;5.624;2023-06-22T05:12:54;101.10;;;31.77;;
53875;SDS011;39789;53.216;5.624;2023-06-22T05:15:19;139.98;;;35.92;;
53875;SDS011;39789;53.216;5.624;2023-06-22T05:17:47;85.45;;;33.65;;
53875;SDS011;39789;53.216;5.624;2023-06-22T05:20:12;49.00;;;32.30;;
53875;SDS011;39789;53.216;5.624;2023-06-22T05:22:39;79.85;;;35.05;;
53875;SDS011;39789;53.216;5.624;2023-06-22T05:25:05;41.92;;;30.95;;
53875;SDS011;39789;53.216;5.624;2023-06-22T05:27:33;45.80;;;33.75;;
53875;SDS011;39789;53.216;5.624;2023-06-22T05:29:58;50.25;;;32.55;;
53875;SDS011;39789;53.216;5.624;2023-06-22T05:32:24;42.30;;;33.65;;
53875;SDS011;39789;53.216;5.624;2023-06-22T05:34:50;42.40;;;33.33;;
53875;SDS011;39789;53.216;5.624;2023-06-22T05:37:15;39.90;;;32.50;;
53875;SDS011;39789;53.216;5.624;2023-06-22T05:39:41;33.97;;;29.40;;
53875;SDS011;39789;53.216;5.624;2023-06-22T05:42:07;38.55;;;29.52;;
53875;SDS011;39789;53.216;5.624;2023-06-22T05:44:33;38.45;;;32.10;;
53875;SDS011;39789;53.216;5.624;2023-06-22T05:46:58;46.95;;;33.67;;
53875;SDS011;39789;53.216;5.624;2023-06-22T05:49:24;37.17;;;30.85;;
53875;SDS011;39789;53.216;5.624;2023-06-22T05:51:54;42.22;;;33.40;;
53875;SDS011;39789;53.216;5.624;2023-06-22T05:54:21;55.10;;;32.78;;
53875;SDS011;39789;53.216;5.624;2023-06-22T05:56:47;47.75;;;32.33;;
53875;SDS011;39789;53.216;5.624;2023-06-22T05:59:13;40.92;;;34.47;;
53875;SDS011;39789;53.216;5.624;2023-06-22T06:01:38;47.22;;;34.13;;
53875;SDS011;39789;53.216;5.624;2023-06-22T06:04:05;42.17;;;31.83;;
53875;SDS011;39789;53.216;5.624;2023-06-22T06:06:33;39.63;;;32.35;;
53875;SDS011;39789;53.216;5.624;2023-06-22T06:09:00;39.83;;;32.05;;
53875;SDS011;39789;53.216;5.624;2023-06-22T06:11:25;44.13;;;31.75;;
53875;SDS011;39789;53.216;5.624;2023-06-22T06:13:51;35.13;;;30.63;;
53875;SDS011;39789;53.216;5.624;2023-06-22T06:16:17;38.22;;;29.95;;
53875;SDS011;39789;53.216;5.624;2023-06-22T06:18:42;38.80;;;31.60;;
53875;SDS011;39789;53.216;5.624;2023-06-22T06:21:08;38.90;;;29.88;;
53875;SDS011;39789;53.216;5.624;2023-06-22T06:23:34;50.83;;;31.88;;
53875;SDS011;39789;53.216;5.624;2023-06-22T06:25:59;43.08;;;30.05;;
53875;SDS011;39789;53.216;5.624;2023-06-22T06:28:26;36.20;;;28.95;;
53875;SDS011;39789;53.216;5.624;2023-06-22T06:30:52;40.97;;;26.55;;
53875;SDS011;39789;53.216;5.624;2023-06-22T06:33:18;43.63;;;27.98;;
53875;SDS011;39789;53.216;5.624;2023-06-22T06:35:44;26.98;;;23.92;;
53875;SDS011;39789;53.216;5.624;2023-06-22T06:38:09;40.58;;;25.20;;
53875;SDS011;39789;53.216;5.624;2023-06-22T06:40:35;31.40;;;24.13;;
53875;SDS011;39789;53.216;5.624;2023-06-22T06:43:01;28.00;;;23.38;;
53875;SDS011;39789;53.216;5.624;2023-06-22T06:45:26;26.63;;;20.55;;
53875;SDS011;39789;53.216;5.624;2023-06-22T06:47:53;27.92;;;22.63;;
53875;SDS011;39789;53.216;5.624;2023-06-22T06:50:19;26.45;;;22.08;;
53875;SDS011;39789;53.216;5.624;2023-06-22T06:52:45;30.83;;;21.02;;
53875;SDS011;39789;53.216;5.624;2023-06-22T06:55:10;31.38;;;19.85;;
53875;SDS011;39789;53.216;5.624;2023-06-22T06:57:40;28.67;;;20.58;;
53875;SDS011;39789;53.216;5.624;2023-06-22T07:00:10;24.23;;;19.70;;
53875;SDS011;39789;53.216;5.624;2023-06-22T07:02:44;34.63;;;19.63;;
53875;SDS011;39789;53.216;5.624;2023-06-22T07:05:12;37.65;;;20.08;;
53875;SDS011;39789;53.216;5.624;2023-06-22T07:07:38;27.50;;;20.02;;
53875;SDS011;39789;53.216;5.624;2023-06-22T07:10:04;21.98;;;18.15;;
53875;SDS011;39789;53.216;5.624;2023-06-22T07:12:30;20.83;;;18.63;;
53875;SDS011;39789;53.216;5.624;2023-06-22T07:15:08;37.58;;;19.25;;
53875;SDS011;39789;53.216;5.624;2023-06-22T07:17:35;24.13;;;18.55;;
53875;SDS011;39789;53.216;5.624;2023-06-22T07:20:02;31.80;;;20.20;;
53875;SDS011;39789;53.216;5.624;2023-06-22T07:22:32;34.13;;;18.67;;
53875;SDS011;39789;53.216;5.624;2023-06-22T07:24:58;27.85;;;18.55;;
53875;SDS011;39789;53.216;5.624;2023-06-22T07:27:23;20.75;;;17.90;;
53875;SDS011;39789;53.216;5.624;2023-06-22T07:29:49;24.23;;;17.85;;
53875;SDS011;39789;53.216;5.624;2023-06-22T07:32:15;20.27;;;15.57;;
53875;SDS011;39789;53.216;5.624;2023-06-22T07:34:41;19.27;;;15.70;;
53875;SDS011;39789;53.216;5.624;2023-06-22T07:37:07;18.98;;;15.65;;
53875;SDS011;39789;53.216;5.624;2023-06-22T07:39:33;20.83;;;16.50;;
53875;SDS011;39789;53.216;5.624;2023-06-22T07:41:59;18.15;;;15.48;;
53875;SDS011;39789;53.216;5.624;2023-06-22T07:44:25;17.80;;;15.20;;
53875;SDS011;39789;53.216;5.624;2023-06-22T07:46:50;22.05;;;14.60;;
53875;SDS011;39789;53.216;5.624;2023-06-22T07:49:17;20.27;;;13.52;;
53875;SDS011;39789;53.216;5.624;2023-06-22T07:51:43;27.63;;;16.30;;
53875;SDS011;39789;53.216;5.624;2023-06-22T07:54:08;15.90;;;13.20;;
53875;SDS011;39789;53.216;5.624;2023-06-22T07:56:36;17.90;;;12.57;;
53875;SDS011;39789;53.216;5.624;2023-06-22T07:59:01;14.50;;;12.63;;
53875;SDS011;39789;53.216;5.624;2023-06-22T08:01:28;20.83;;;14.25;;
53875;SDS011;39789;53.216;5.624;2023-06-22T08:03:54;16.35;;;12.30;;
53875;SDS011;39789;53.216;5.624;2023-06-22T08:06:20;18.08;;;14.02;;
53875;SDS011;39789;53.216;5.624;2023-06-22T08:08:46;23.15;;;14.23;;
53875;SDS011;39789;53.216;5.624;2023-06-22T08:11:14;22.63;;;13.88;;
53875;SDS011;39789;53.216;5.624;2023-06-22T08:13:39;16.67;;;13.70;;
53875;SDS011;39789;53.216;5.624;2023-06-22T08:16:05;16.15;;;14.05;;
53875;SDS011;39789;53.216;5.624;2023-06-22T08:18:32;16.83;;;12.65;;
53875;SDS011;39789;53.216;5.624;2023-06-22T08:20:57;15.82;;;12.98;;
53875;SDS011;39789;53.216;5.624;2023-06-22T08:23:23;19.30;;;12.50;;
53875;SDS011;39789;53.216;5.624;2023-06-22T08:25:49;18.85;;;15.25;;
53875;SDS011;39789;53.216;5.624;2023-06-22T08:28:15;18.65;;;13.68;;
53875;SDS011;39789;53.216;5.624;2023-06-22T08:30:41;17.88;;;11.98;;
53875;SDS011;39789;53.216;5.624;2023-06-22T08:33:06;20.48;;;13.52;;
53875;SDS011;39789;53.216;5.624;2023-06-22T08:35:32;14.95;;;12.02;;
53875;SDS011;39789;53.216;5.624;2023-06-22T08:37:58;16.67;;;12.52;;
53875;SDS011;39789;53.216;5.624;2023-06-22T08:40:27;17.60;;;13.65;;
53875;SDS011;39789;53.216;5.624;2023-06-22T08:42:54;17.83;;;12.85;;
53875;SDS011;39789;53.216;5.624;2023-06-22T08:45:20;17.55;;;14.00;;
53875;SDS011;39789;53.216;5.624;2023-06-22T08:47:46;19.15;;;13.95;;
53875;SDS011;39789;53.216;5.624;2023-06-22T08:50:11;26.00;;;14.23;;
53875;SDS011;39789;53.216;5.624;2023-06-22T08:52:38;15.93;;;14.05;;
53875;SDS011;39789;53.216;5.624;2023-06-22T08:55:06;18.95;;;15.30;;
53875;SDS011;39789;53.216;5.624;2023-06-22T08:57:33;17.00;;;14.38;;
53875;SDS011;39789;53.216;5.624;2023-06-22T08:59:58;17.75;;;14.77;;
53875;SDS011;39789;53.216;5.624;2023-06-22T09:02:25;14.25;;;12.57;;
53875;SDS011;39789;53.216;5.624;2023-06-22T09:04:50;15.52;;;13.93;;
53875;SDS011;39789;53.216;5.624;2023-06-22T09:07:21;28.73;;;14.27;;
53875;SDS011;39789;53.216;5.624;2023-06-22T09:09:48;16.40;;;11.30;;
53875;SDS011;39789;53.216;5.624;2023-06-22T09:12:14;15.25;;;12.45;;
53875;SDS011;39789;53.216;5.624;2023-06-22T09:14:40;21.95;;;13.90;;
53875;SDS011;39789;53.216;5.624;2023-06-22T09:17:05;19.83;;;10.80;;
53875;SDS011;39789;53.216;5.624;2023-06-22T09:19:31;12.60;;;11.30;;
53875;SDS011;39789;53.216;5.624;2023-06-22T09:21:56;14.07;;;10.95;;
53875;SDS011;39789;53.216;5.624;2023-06-22T09:24:22;21.48;;;11.45;;
53875;SDS011;39789;53.216;5.624;2023-06-22T09:26:47;16.50;;;11.50;;
53875;SDS011;39789;53.216;5.624;2023-06-22T09:29:13;23.15;;;11.50;;
53875;SDS011;39789;53.216;5.624;2023-06-22T09:31:39;9.13;;;7.30;;
53875;SDS011;39789;53.216;5.624;2023-06-22T09:34:04;25.00;;;11.02;;
53875;SDS011;39789;53.216;5.624;2023-06-22T09:36:30;20.83;;;12.20;;
53875;SDS011;39789;53.216;5.624;2023-06-22T09:38:55;17.52;;;9.80;;
53875;SDS011;39789;53.216;5.624;2023-06-22T09:41:23;17.55;;;10.63;;
53875;SDS011;39789;53.216;5.624;2023-06-22T09:43:49;15.98;;;12.90;;
53875;SDS011;39789;53.216;5.624;2023-06-22T09:46:15;21.20;;;12.23;;
53875;SDS011;39789;53.216;5.624;2023-06-22T09:48:41;15.75;;;11.07;;
53875;SDS011;39789;53.216;5.624;2023-06-22T09:51:06;12.10;;;10.80;;
53875;SDS011;39789;53.216;5.624;2023-06-22T09:53:32;12.05;;;10.23;;
53875;SDS011;39789;53.216;5.624;2023-06-22T09:55:59;12.20;;;10.60;;
53875;SDS011;39789;53.216;5.624;2023-06-22T09:58:25;12.98;;;9.57;;
53875;SDS011;39789;53.216;5.624;2023-06-22T10:00:53;14.55;;;9.90;;
53875;SDS011;39789;53.216;5.624;2023-06-22T10:03:19;13.48;;;9.77;;
53875;SDS011;39789;53.216;5.624;2023-06-22T10:05:45;20.63;;;12.25;;
53875;SDS011;39789;53.216;5.624;2023-06-22T10:08:11;14.00;;;10.45;;
53875;SDS011;39789;53.216;5.624;2023-06-22T10:10:37;10.43;;;9.13;;
53875;SDS011;39789;53.216;5.624;2023-06-22T10:13:04;11.52;;;8.75;;
53875;SDS011;39789;53.216;5.624;2023-06-22T10:15:35;10.30;;;8.18;;
53875;SDS011;39789;53.216;5.624;2023-06-22T10:18:01;11.68;;;8.82;;
53875;SDS011;39789;53.216;5.624;2023-06-22T10:20:26;17.48;;;10.13;;
53875;SDS011;39789;53.216;5.624;2023-06-22T10:22:53;19.90;;;8.85;;
53875;SDS011;39789;53.216;5.624;2023-06-22T10:25:18;21.05;;;8.65;;
53875;SDS011;39789;53.216;5.624;2023-06-22T10:27:44;17.42;;;9.43;;
53875;SDS011;39789;53.216;5.624;2023-06-22T10:30:10;12.23;;;9.63;;
53875;SDS011;39789;53.216;5.624;2023-06-22T10:32:40;14.43;;;10.77;;
53875;SDS011;39789;53.216;5.624;2023-06-22T10:35:07;9.68;;;8.30;;
53875;SDS011;39789;53.216;5.624;2023-06-22T10:37:33;11.68;;;8.75;;
53875;SDS011;39789;53.216;5.624;2023-06-22T10:39:59;9.80;;;8.50;;
53875;SDS011;39789;53.216;5.624;2023-06-22T10:42:25;16.00;;;10.65;;
53875;SDS011;39789;53.216;5.624;2023-06-22T10:44:50;25.70;;;13.43;;
53875;SDS011;39789;53.216;5.624;2023-06-22T10:47:16;22.33;;;12.35;;
53875;SDS011;39789;53.216;5.624;2023-06-22T10:49:41;21.63;;;11.73;;
53875;SDS011;39789;53.216;5.624;2023-06-22T10:52:08;9.70;;;8.55;;
53875;SDS011;39789;53.216;5.624;2023-06-22T10:54:37;15.98;;;9.25;;
53875;SDS011;39789;53.216;5.624;2023-06-22T10:57:03;10.95;;;8.02;;
53875;SDS011;39789;53.216;5.624;2023-06-22T10:59:29;19.77;;;10.07;;
53875;SDS011;39789;53.216;5.624;2023-06-22T11:01:55;8.13;;;7.15;;
53875;SDS011;39789;53.216;5.624;2023-06-22T11:04:21;8.88;;;7.32;;
53875;SDS011;39789;53.216;5.624;2023-06-22T11:06:47;7.70;;;6.80;;
53875;SDS011;39789;53.216;5.624;2023-06-22T11:09:14;13.15;;;7.45;;
53875;SDS011;39789;53.216;5.624;2023-06-22T11:11:45;8.82;;;7.13;;
53875;SDS011;39789;53.216;5.624;2023-06-22T11:14:11;8.23;;;7.30;;
53875;SDS011;39789;53.216;5.624;2023-06-22T11:16:37;12.93;;;8.07;;
53875;SDS011;39789;53.216;5.624;2023-06-22T11:19:04;10.27;;;7.97;;
53875;SDS011;39789;53.216;5.624;2023-06-22T11:21:30;11.30;;;8.00;;
53875;SDS011;39789;53.216;5.624;2023-06-22T11:23:56;9.10;;;6.70;;
53875;SDS011;39789;53.216;5.624;2023-06-22T11:26:23;7.07;;;6.28;;
53875;SDS011;39789;53.216;5.624;2023-06-22T11:28:49;10.95;;;7.50;;
53875;SDS011;39789;53.216;5.624;2023-06-22T11:31:15;10.13;;;7.13;;
53875;SDS011;39789;53.216;5.624;2023-06-22T11:33:40;10.40;;;7.03;;
53875;SDS011;39789;53.216;5.624;2023-06-22T11:36:06;10.18;;;6.75;;
53875;SDS011;39789;53.216;5.624;2023-06-22T11:38:32;8.70;;;6.15;;
53875;SDS011;39789;53.216;5.624;2023-06-22T11:40:58;7.25;;;5.75;;
53875;SDS011;39789;53.216;5.624;2023-06-22T11:43:25;12.85;;;6.50;;
53875;SDS011;39789;53.216;5.624;2023-06-22T11:45:50;9.57;;;6.45;;
53875;SDS011;39789;53.216;5.624;2023-06-22T11:48:16;7.72;;;6.35;;
53875;SDS011;39789;53.216;5.624;2023-06-22T11:50:42;10.02;;;6.90;;
53875;SDS011;39789;53.216;5.624;2023-06-22T11:53:09;10.15;;;6.97;;
53875;SDS011;39789;53.216;5.624;2023-06-22T11:55:34;17.52;;;8.48;;
53875;SDS011;39789;53.216;5.624;2023-06-22T11:58:00;8.75;;;6.90;;
53875;SDS011;39789;53.216;5.624;2023-06-22T12:00:28;7.25;;;5.78;;
53875;SDS011;39789;53.216;5.624;2023-06-22T12:02:54;10.68;;;7.03;;
53875;SDS011;39789;53.216;5.624;2023-06-22T12:05:21;21.77;;;8.65;;
53875;SDS011;39789;53.216;5.624;2023-06-22T12:07:47;15.13;;;7.28;;
53875;SDS011;39789;53.216;5.624;2023-06-22T12:10:13;6.80;;;6.00;;
53875;SDS011;39789;53.216;5.624;2023-06-22T12:12:39;7.60;;;5.57;;
53875;SDS011;39789;53.216;5.624;2023-06-22T12:15:05;10.70;;;6.45;;
53875;SDS011;39789;53.216;5.624;2023-06-22T12:17:32;10.18;;;6.75;;
53875;SDS011;39789;53.216;5.624;2023-06-22T12:19:59;9.02;;;5.65;;
53875;SDS011;39789;53.216;5.624;2023-06-22T12:22:24;7.63;;;6.53;;
53875;SDS011;39789;53.216;5.624;2023-06-22T12:24:50;15.18;;;8.25;;
53875;SDS011;39789;53.216;5.624;2023-06-22T12:27:16;7.05;;;5.80;;
53875;SDS011;39789;53.216;5.624;2023-06-22T12:29:43;9.18;;;6.18;;
53875;SDS011;39789;53.216;5.624;2023-06-22T12:32:10;12.55;;;6.90;;
53875;SDS011;39789;53.216;5.624;2023-06-22T12:34:38;8.23;;;5.85;;
53875;SDS011;39789;53.216;5.624;2023-06-22T12:37:04;21.85;;;8.30;;
53875;SDS011;39789;53.216;5.624;2023-06-22T12:39:31;16.40;;;7.32;;
53875;SDS011;39789;53.216;5.624;2023-06-22T12:41:57;8.13;;;4.80;;
53875;SDS011;39789;53.216;5.624;2023-06-22T12:44:23;5.95;;;4.78;;
53875;SDS011;39789;53.216;5.624;2023-06-22T12:46:48;10.75;;;6.32;;
53875;SDS011;39789;53.216;5.624;2023-06-22T12:49:14;6.43;;;3.80;;
53875;SDS011;39789;53.216;5.624;2023-06-22T12:51:40;10.48;;;5.07;;
53875;SDS011;39789;53.216;5.624;2023-06-22T12:54:09;4.85;;;4.05;;
53875;SDS011;39789;53.216;5.624;2023-06-22T12:56:36;3.70;;;3.30;;
53875;SDS011;39789;53.216;5.624;2023-06-22T12:59:02;5.20;;;3.45;;
53875;SDS011;39789;53.216;5.624;2023-06-22T13:01:31;5.22;;;3.20;;
53875;SDS011;39789;53.216;5.624;2023-06-22T13:04:00;4.68;;;3.00;;
53875;SDS011;39789;53.216;5.624;2023-06-22T13:06:26;6.38;;;2.95;;
53875;SDS011;39789;53.216;5.624;2023-06-22T13:08:51;3.35;;;2.30;;
53875;SDS011;39789;53.216;5.624;2023-06-22T13:11:17;4.32;;;2.63;;
53875;SDS011;39789;53.216;5.624;2023-06-22T13:13:44;2.50;;;2.17;;
53875;SDS011;39789;53.216;5.624;2023-06-22T13:16:10;3.38;;;2.22;;
53875;SDS011;39789;53.216;5.624;2023-06-22T13:18:36;2.33;;;2.13;;
53875;SDS011;39789;53.216;5.624;2023-06-22T13:21:02;2.80;;;2.20;;
53875;SDS011;39789;53.216;5.624;2023-06-22T13:23:28;3.00;;;2.38;;
53875;SDS011;39789;53.216;5.624;2023-06-22T13:25:53;2.42;;;2.05;;
53875;SDS011;39789;53.216;5.624;2023-06-22T13:28:19;3.25;;;2.10;;
53875;SDS011;39789;53.216;5.624;2023-06-22T13:30:45;2.85;;;1.90;;
53875;SDS011;39789;53.216;5.624;2023-06-22T13:33:12;3.25;;;2.30;;
53875;SDS011;39789;53.216;5.624;2023-06-22T13:35:38;4.05;;;2.00;;
53875;SDS011;39789;53.216;5.624;2023-06-22T13:38:04;3.78;;;1.95;;
53875;SDS011;39789;53.216;5.624;2023-06-22T13:40:30;2.95;;;1.80;;
53875;SDS011;39789;53.216;5.624;2023-06-22T13:42:56;2.15;;;1.70;;
53875;SDS011;39789;53.216;5.624;2023-06-22T13:45:22;3.25;;;2.00;;
53875;SDS011;39789;53.216;5.624;2023-06-22T13:47:47;2.45;;;1.75;;
53875;SDS011;39789;53.216;5.624;2023-06-22T13:50:13;1.65;;;1.50;;
53875;SDS011;39789;53.216;5.624;2023-06-22T13:52:39;2.78;;;1.83;;
53875;SDS011;39789;53.216;5.624;2023-06-22T13:55:05;4.97;;;2.17;;
53875;SDS011;39789;53.216;5.624;2023-06-22T13:57:32;3.97;;;1.80;;
53875;SDS011;39789;53.216;5.624;2023-06-22T13:59:59;3.00;;;1.80;;
53875;SDS011;39789;53.216;5.624;2023-06-22T14:02:25;2.33;;;1.65;;
53875;SDS011;39789;53.216;5.624;2023-06-22T14:04:51;3.13;;;1.77;;
53875;SDS011;39789;53.216;5.624;2023-06-22T14:07:17;3.63;;;2.30;;
53875;SDS011;39789;53.216;5.624;2023-06-22T14:09:44;3.10;;;1.52;;
53875;SDS011;39789;53.216;5.624;2023-06-22T14:12:10;3.83;;;1.52;;
53875;SDS011;39789;53.216;5.624;2023-06-22T14:14:36;2.92;;;1.90;;
53875;SDS011;39789;53.216;5.624;2023-06-22T14:17:02;3.00;;;2.08;;
53875;SDS011;39789;53.216;5.624;2023-06-22T14:19:29;3.83;;;2.08;;
53875;SDS011;39789;53.216;5.624;2023-06-22T14:21:55;2.25;;;2.00;;
53875;SDS011;39789;53.216;5.624;2023-06-22T14:24:21;2.92;;;1.85;;
53875;SDS011;39789;53.216;5.624;2023-06-22T14:26:47;2.58;;;2.00;;
53875;SDS011;39789;53.216;5.624;2023-06-22T14:29:13;2.03;;;1.80;;
53875;SDS011;39789;53.216;5.624;2023-06-22T14:31:39;3.17;;;2.15;;